Time,TemperatureF,DewpointF,PressureIn,WindDirection,WindDirectionDegrees,WindSpeedMPH,WindSpeedGustMPH,Humidity,HourlyPrecipIn,Conditions,Clouds,dailyrainin,SoftwareType,DateUTC
2013-04-09 00:00:00,22.0,15.0,-100.00,North,0,0.0,5.0,75,-99.99,,,-99.99,,2013-04-09 07:00:00,
2013-04-09 01:00:00,21.0,15.0,-100.00,WSW,238,1.0,3.0,77,-99.99,,,-99.99,,2013-04-09 08:00:00,
2013-04-09 02:00:00,21.0,14.0,-100.00,SW,220,3.0,9.0,74,-99.99,,,-99.99,,2013-04-09 09:00:00,
2013-04-09 03:00:00,20.0,13.0,-100.00,WSW,238,2.0,7.0,74,-99.99,,,-99.99,,2013-04-09 10:00:00,
2013-04-09 04:00:00,21.0,17.0,-100.00,SW,228,1.0,7.0,83,-99.99,,,-99.99,,2013-04-09 11:00:00,
2013-04-09 05:00:00,20.0,16.0,-100.00,SSE,163,1.0,3.0,84,-99.99,,,-99.99,,2013-04-09 12:00:00,
2013-04-09 06:00:00,21.0,13.0,-100.00,NNW,343,1.0,5.0,72,-99.99,,,-99.99,,2013-04-09 13:00:00,
2013-04-09 07:00:00,22.0,16.0,-100.00,North,-999,0.0,0.0,76,-99.99,,,-99.99,,2013-04-09 14:00:00,
2013-04-09 10:00:00,28.0,24.0,-100.00,North,0,0.0,2.0,85,-99.99,,,-99.99,,2013-04-09 17:00:00,
2013-04-09 12:00:00,32.0,29.0,-100.00,North,0,0.0,1.0,87,-99.99,,,-99.99,,2013-04-09 19:00:00,
2013-04-09 13:00:00,33.0,27.0,-100.00,North,-999,0.0,0.0,78,-99.99,,,-99.99,,2013-04-09 20:00:00,
2013-04-09 14:00:00,34.0,19.0,-100.00,North,-999,0.0,0.0,54,-99.99,,,-99.99,,2013-04-09 21:00:00,
2013-04-09 15:00:00,34.0,28.0,-100.00,North,-999,0.0,0.0,78,-99.99,,,-99.99,,2013-04-09 22:00:00,
2013-04-09 16:00:00,34.0,26.0,-100.00,North,0,0.0,3.0,72,-99.99,,,-99.99,,2013-04-09 23:00:00,
2013-04-09 17:00:00,34.0,28.0,-100.00,North,0,0.0,3.0,77,-99.99,,,-99.99,,2013-04-10 00:00:00,
2013-04-09 18:00:00,35.0,30.0,-100.00,North,0,0.0,3.0,81,-99.99,,,-99.99,,2013-04-10 01:00:00,
2013-04-09 19:00:00,34.0,29.0,-100.00,East,83,1.0,7.0,82,-99.99,,,-99.99,,2013-04-10 02:00:00,
2013-04-09 21:00:00,37.0,33.0,-100.00,West,266,2.0,12.0,84,-99.99,,,-99.99,,2013-04-10 04:00:00,
2013-04-09 22:00:00,41.0,33.0,-100.00,WSW,258,13.0,23.0,74,-99.99,,,-99.99,,2013-04-10 05:00:00,
2013-04-09 23:00:00,40.0,34.0,-100.00,WSW,254,16.0,22.0,80,-99.99,,,-99.99,,2013-04-10 06:00:00,